createdAt,value
2023-04-03T00:04:27.018Z,19.1
2023-04-03T00:10:17.794Z,19.1
2023-04-03T00:16:08.774Z,19.1
2023-04-03T00:22:01.639Z,19.1
2023-04-03T00:27:52.639Z,19.1
2023-04-03T00:33:44.714Z,19.1
2023-04-03T00:39:21.059Z,19.1
2023-04-03T00:45:12.858Z,19.1
2023-04-03T00:50:49.172Z,19.1
2023-04-03T00:56:24.806Z,19.1
2023-04-03T01:02:17.107Z,19.1
2023-04-03T01:08:08.763Z,19.1
2023-04-03T01:14:00.449Z,19.1
2023-04-03T01:19:51.716Z,19.3
2023-04-03T01:25:43.139Z,19.5
2023-04-03T01:31:34.547Z,19.9
2023-04-03T01:37:26.608Z,20.4
2023-04-03T01:43:17.689Z,21.2
2023-04-03T01:49:08.933Z,22.1
2023-04-03T01:55:00.289Z,22.9
2023-04-03T02:00:52.124Z,23.8
2023-04-03T02:06:45.639Z,24.8
2023-04-03T02:12:37.865Z,25.8
2023-04-03T02:18:29.635Z,26.7
2023-04-03T02:24:20.229Z,27.6
2023-04-03T02:30:11.299Z,28.6
2023-04-03T02:35:47.480Z,29.3
2023-04-03T02:41:38.898Z,29.8
2023-04-03T02:47:30.430Z,30
2023-04-03T02:53:22.484Z,30.2
2023-04-03T02:59:15.565Z,30.3
2023-04-03T03:04:52.468Z,30.4
2023-04-03T03:10:43.222Z,30.5
2023-04-03T03:16:34.822Z,30.5
2023-04-03T03:22:26.628Z,30.6
2023-04-03T03:28:17.507Z,30.6
2023-04-03T03:34:09.560Z,30.6
2023-04-03T03:40:01.057Z,30.7
2023-04-03T03:45:54.739Z,30.7
2023-04-03T03:51:15.270Z,30.8
2023-04-03T03:57:07.167Z,30.8
2023-04-03T04:02:59.560Z,30.8
2023-04-03T04:08:51.766Z,30.8
2023-04-03T04:14:42.559Z,30.8
2023-04-03T04:20:03.183Z,30.8
2023-04-03T04:25:53.851Z,30.8
2023-04-03T04:31:45.087Z,30.8
2023-04-03T04:37:36.986Z,30.8
2023-04-03T04:43:27.982Z,30.7
2023-04-03T04:49:21.972Z,30.7
2023-04-03T04:55:20.142Z,30.7
2023-04-03T05:01:12.861Z,30.7
2023-04-03T05:07:05.928Z,30.6
2023-04-03T05:12:41.488Z,30.6
2023-04-03T05:18:32.870Z,30.6
2023-04-03T05:24:23.979Z,30.6
2023-04-03T05:30:16.612Z,30.5
2023-04-03T05:36:09.607Z,30.4
2023-04-03T05:42:02.732Z,30.4
2023-04-03T05:47:56.590Z,30.4
2023-04-03T05:53:48.429Z,30.4
2023-04-03T05:59:41.096Z,30.4
2023-04-03T06:05:36.194Z,30.3
2023-04-03T06:11:29.130Z,30.3
2023-04-03T06:17:20.578Z,30.3
2023-04-03T06:23:11.783Z,30.2
2023-04-03T06:29:03.197Z,30.2
2023-04-03T06:34:57.715Z,30.1
2023-04-03T06:40:49.005Z,30.1
2023-04-03T06:46:42.030Z,30.1
2023-04-03T06:52:35.247Z,29.8
2023-04-03T06:58:26.506Z,29.6
2023-04-03T07:04:19.224Z,29.5
2023-04-03T07:10:11.064Z,29.4
2023-04-03T07:16:02.535Z,29.3
2023-04-03T07:21:54.572Z,29.3
2023-04-03T07:27:51.945Z,29.3
2023-04-03T07:33:43.857Z,29.2
2023-04-03T07:39:35.747Z,29.1
2023-04-03T07:45:27.100Z,29.1
2023-04-03T07:51:03.400Z,29.1
2023-04-03T07:56:56.084Z,40.5
2023-04-03T08:02:33.309Z,40.8
2023-04-03T08:08:40.620Z,38.8
2023-04-03T08:14:32.633Z,37.1
2023-04-03T08:20:16.254Z,35.9
2023-04-03T08:26:20.869Z,35
2023-04-03T08:31:57.840Z,34.3
2023-04-03T08:37:49.918Z,33.7
2023-04-03T08:43:42.302Z,42.1
2023-04-03T08:49:35.600Z,40.1
2023-04-03T08:55:33.486Z,38.2
2023-04-03T09:01:26.042Z,36.7
2023-04-03T09:07:19.511Z,35.6
2023-04-03T09:13:11.933Z,34.7
2023-04-03T09:19:17.727Z,33.9
2023-04-03T09:25:14.973Z,33.3
2023-04-03T09:31:18.080Z,40.4
2023-04-03T09:37:26.752Z,39.1
2023-04-03T09:43:11.925Z,37.3
2023-04-03T09:49:14.282Z,35.8
2023-04-03T09:55:08.190Z,34.5
2023-04-03T10:01:12.521Z,40.7
2023-04-03T10:07:20.316Z,40.6
2023-04-03T10:13:22.172Z,40.9
2023-04-03T10:19:40.191Z,40.5
2023-04-03T10:25:40.305Z,40.2
2023-04-03T10:31:34.921Z,39.8
2023-04-03T10:37:34.939Z,39.2
2023-04-03T10:43:39.964Z,38.8
2023-04-03T10:49:19.568Z,38.5
2023-04-03T10:55:18.524Z,38.4
2023-04-03T11:01:23.441Z,38.1
2023-04-03T11:07:04.380Z,37.9
2023-04-03T11:12:41.354Z,37.6
2023-04-03T11:18:31.669Z,37.3
2023-04-03T11:24:21.103Z,36.8
2023-04-03T11:30:06.725Z,35.6
2023-04-03T11:35:46.335Z,34.3
2023-04-03T11:41:39.844Z,33.1
2023-04-03T11:47:31.429Z,32.1
2023-04-03T11:54:03.789Z,31.3
2023-04-03T12:00:44.979Z,30.6
2023-04-03T12:07:28.918Z,29.9
2023-04-03T12:13:48.822Z,29.5
2023-04-03T12:20:18.966Z,29.1
2023-04-03T12:26:30.196Z,28.8
2023-04-03T12:32:46.296Z,28.5
2023-04-03T12:39:28.411Z,28.3
2023-04-03T12:45:56.607Z,28
2023-04-03T12:52:10.182Z,27.7
2023-04-03T12:58:35.280Z,27.4
2023-04-03T13:05:01.896Z,27.1
2023-04-03T13:11:28.824Z,26.9
2023-04-03T13:17:59.777Z,26.7
2023-04-03T13:24:35.785Z,26.4
2023-04-03T13:30:51.530Z,26.1
2023-04-03T13:36:41.745Z,25.9
2023-04-03T13:42:27.056Z,25.8
2023-04-03T13:48:20.181Z,25.5
2023-04-03T13:54:06.937Z,25.3
2023-04-03T13:59:52.846Z,25.1
2023-04-03T14:05:14.173Z,24.8
2023-04-03T14:10:59.346Z,24.6
2023-04-03T14:16:49.134Z,24.4
2023-04-03T14:22:30.072Z,24.3
2023-04-03T14:28:07.167Z,24.1
2023-04-03T14:33:54.193Z,23.9
2023-04-03T14:39:31.136Z,23.9
2023-04-03T14:45:14.213Z,23.8
2023-04-03T14:51:27.204Z,23.7
2023-04-03T14:57:16.351Z,23.6
2023-04-03T15:02:53.792Z,23.5
2023-04-03T15:08:33.397Z,23.4
2023-04-03T15:14:10.668Z,23.4
2023-04-03T15:20:05.739Z,23.4
2023-04-03T15:25:27.201Z,23.3
2023-04-03T15:30:48.209Z,23.3
2023-04-03T15:36:50.716Z,23.2
2023-04-03T15:42:26.883Z,23.1
2023-04-03T15:48:02.817Z,23.1
2023-04-03T15:53:54.413Z,23
2023-04-03T15:59:30.727Z,23
2023-04-03T16:05:09.742Z,22.9
2023-04-03T16:10:45.983Z,22.9
2023-04-03T16:16:37.517Z,22.9
2023-04-03T16:21:58.838Z,22.9
2023-04-03T16:27:36.240Z,22.8
2023-04-03T16:33:30.398Z,22.8
2023-04-03T16:39:12.272Z,22.8
2023-04-03T16:45:07.986Z,22.7
2023-04-03T16:51:03.268Z,22.6
2023-04-03T16:56:41.793Z,22.6
2023-04-03T17:02:39.014Z,22.6
2023-04-03T17:08:35.101Z,22.5
2023-04-03T17:14:34.203Z,22.5
2023-04-03T17:20:29.692Z,22.4
2023-04-03T17:26:23.410Z,22.4
2023-04-03T17:32:03.083Z,22.3
2023-04-03T17:38:01.136Z,22.3
2023-04-03T17:43:57.605Z,22.3
2023-04-03T17:49:56.733Z,22.1
2023-04-03T17:55:55.858Z,22.1
2023-04-03T18:01:55.622Z,22.1
2023-04-03T18:07:38.640Z,22.1
2023-04-03T18:13:38.866Z,22
2023-04-03T18:19:39.337Z,22
2023-04-03T18:25:39.926Z,21.9
2023-04-03T18:31:44.700Z,21.9
2023-04-03T18:37:46.207Z,21.8
2023-04-03T18:43:29.765Z,21.7
2023-04-03T18:49:30.787Z,21.6
2023-04-03T18:55:31.206Z,21.4
2023-04-03T19:01:32.437Z,21.3
2023-04-03T19:07:33.406Z,21.2
2023-04-03T19:13:34.334Z,21.1
2023-04-03T19:19:59.447Z,20.9
2023-04-03T19:26:00.273Z,20.9
2023-04-03T19:32:00.407Z,20.8
2023-04-03T19:38:00.099Z,20.8
2023-04-03T19:43:53.258Z,20.7
2023-04-03T19:49:57.074Z,20.6
2023-04-03T19:55:48.806Z,20.6
2023-04-03T20:01:56.060Z,20.5
2023-04-03T20:07:48.287Z,20.5
2023-04-03T20:13:40.870Z,20.4
2023-04-03T20:19:34.385Z,20.4
2023-04-03T20:25:39.146Z,20.4
2023-04-03T20:31:37.693Z,20.4
2023-04-03T20:37:27.557Z,20.4
2023-04-03T20:43:21.042Z,20.3
2023-04-03T20:49:24.320Z,20.3
2023-04-03T20:55:16.000Z,20.3
2023-04-03T21:01:02.873Z,20.3
2023-04-03T21:06:59.899Z,20.3
2023-04-03T21:12:53.457Z,20.3
2023-04-03T21:18:44.870Z,20.3
2023-04-03T21:24:37.182Z,20.2
2023-04-03T21:30:29.225Z,20.2
2023-04-03T21:36:21.280Z,20.2
2023-04-03T21:41:57.473Z,20.2
2023-04-03T21:47:49.626Z,20.1
2023-04-03T21:53:42.732Z,20.1
2023-04-03T21:59:34.766Z,20.1
2023-04-03T22:05:38.764Z,20.1
2023-04-03T22:11:30.267Z,20.1
2023-04-03T22:17:06.441Z,20.1
2023-04-03T22:22:58.673Z,20.1
2023-04-03T22:28:49.370Z,20.1
2023-04-03T22:34:41.338Z,20.1
2023-04-03T22:40:17.416Z,20.1
2023-04-03T22:45:58.016Z,20.1
2023-04-03T22:51:50.248Z,20.1
2023-04-03T22:57:48.225Z,20.1
2023-04-03T23:03:24.699Z,20.1
2023-04-03T23:09:16.788Z,20.1
2023-04-03T23:14:53.749Z,20.1
2023-04-03T23:20:30.082Z,20.1
2023-04-03T23:26:21.910Z,20.1
2023-04-03T23:32:13.426Z,20.1
2023-04-03T23:37:49.854Z,20
2023-04-03T23:43:43.143Z,20.1
2023-04-03T23:49:20.263Z,20
2023-04-03T23:54:56.661Z,20
